TAFS

Station TAF
VRMM
VRMM 221100Z 2212/2318 35006KT 9000 FEW018 TEMPO 2212/2218 FEW018CB=
VRMH
VRMH 221100Z 2212/2318 35006KT 9000 FEW018 TEMPO 2212/2218 FEW018CB=
VRMK
VRMK 221100Z 2212/2312 33004KT 9999 FEW018 TEMPO 2212/2218 FEW018CB=
VRMT
VRMT 221100Z 2212/2312 34007KT 9999 FEW018=
VRMG
VRMG 221100Z 2212/2318 33008KT 9999 FEW018 TEMPO 2212/2218 FEW018CB=